Time,TemperatureF,DewpointF,PressureIn,WindDirection,WindDirectionDegrees,WindSpeedMPH,WindSpeedGustMPH,Humidity,HourlyPrecipIn,Conditions,Clouds,dailyrainin,SoftwareType,DateUTC
2013-09-25 00:01:00,46.9,46.0,30.00,NNE,30,0.0,0.0,95,0.00,,,0.00,weatherlink.com 1.10,2013-09-25 04:01:00,
2013-09-25 00:16:00,46.9,46.0,30.01,SE,142,0.0,0.0,96,0.00,,,0.00,weatherlink.com 1.10,2013-09-25 04:16:00,
2013-09-25 00:31:00,46.9,46.0,30.00,ESE,107,0.0,0.0,95,0.00,,,0.00,weatherlink.com 1.10,2013-09-25 04:31:00,
2013-09-25 00:46:00,47.6,46.0,30.00,East,97,0.0,1.0,95,0.00,,,0.00,weatherlink.com 1.10,2013-09-25 04:46:00,
2013-09-25 01:01:00,47.6,46.0,30.00,SE,133,0.0,2.0,94,0.00,,,0.00,weatherlink.com 1.10,2013-09-25 05:01:00,
2013-09-25 01:16:00,47.1,45.0,30.00,ESE,120,0.0,0.0,93,0.00,,,0.00,weatherlink.com 1.10,2013-09-25 05:16:00,
2013-09-25 01:31:00,46.1,45.0,30.00,ESE,120,0.0,1.0,94,0.00,,,0.00,weatherlink.com 1.10,2013-09-25 05:31:00,
2013-09-25 01:46:00,46.3,45.0,30.00,ESE,120,0.0,0.0,95,0.00,,,0.00,weatherlink.com 1.10,2013-09-25 05:46:00,
2013-09-25 02:01:00,45.4,44.0,30.00,ESE,120,0.0,0.0,95,0.00,,,0.00,weatherlink.com 1.10,2013-09-25 06:01:00,
2013-09-25 02:16:00,45.3,44.0,30.00,ESE,120,0.0,0.0,95,0.00,,,0.00,weatherlink.com 1.10,2013-09-25 06:16:00,
2013-09-25 02:31:00,44.2,43.0,29.99,ESE,120,0.0,0.0,95,0.00,,,0.00,weatherlink.com 1.10,2013-09-25 06:31:00,
2013-09-25 02:46:00,43.9,43.0,29.99,ESE,120,0.0,0.0,95,0.00,,,0.00,weatherlink.com 1.10,2013-09-25 06:46:00,
2013-09-25 03:17:00,42.6,42.0,29.99,SW,224,0.0,0.0,96,0.00,,,0.00,weatherlink.com 1.10,2013-09-25 07:17:00,
2013-09-25 03:32:00,41.3,40.0,29.99,SW,224,0.0,0.0,96,0.00,,,0.00,weatherlink.com 1.10,2013-09-25 07:32:00,
2013-09-25 03:47:00,40.7,40.0,29.99,SW,224,0.0,0.0,96,0.00,,,0.00,weatherlink.com 1.10,2013-09-25 07:47:00,
2013-09-25 04:02:00,40.0,39.0,29.99,SW,224,0.0,0.0,96,0.00,,,0.00,weatherlink.com 1.10,2013-09-25 08:02:00,
2013-09-25 04:17:00,40.7,40.0,29.99,SW,224,0.0,0.0,97,0.00,,,0.00,weatherlink.com 1.10,2013-09-25 08:17:00,
2013-09-25 04:32:00,40.6,40.0,29.98,SW,224,0.0,0.0,97,0.00,,,0.00,weatherlink.com 1.10,2013-09-25 08:32:00,
2013-09-25 05:00:00,40.0,39.0,29.98,SW,224,0.0,0.0,97,0.00,,,0.00,weatherlink.com 1.10,2013-09-25 09:00:00,
2013-09-25 05:17:00,39.6,39.0,29.99,SW,224,0.0,0.0,97,0.00,,,0.00,weatherlink.com 1.10,2013-09-25 09:17:00,
2013-09-25 05:32:00,39.9,39.0,29.99,SW,224,0.0,0.0,97,0.00,,,0.00,weatherlink.com 1.10,2013-09-25 09:32:00,
2013-09-25 05:47:00,38.8,38.0,29.99,SW,224,0.0,0.0,97,0.00,,,0.00,weatherlink.com 1.10,2013-09-25 09:47:00,
2013-09-25 06:02:00,38.8,38.0,29.99,SW,224,0.0,0.0,98,0.00,,,0.00,weatherlink.com 1.10,2013-09-25 10:02:00,
2013-09-25 06:17:00,38.3,38.0,29.99,SW,224,0.0,0.0,97,0.00,,,0.00,weatherlink.com 1.10,2013-09-25 10:17:00,
2013-09-25 06:32:00,37.8,37.0,29.99,SW,224,0.0,0.0,97,0.00,,,0.00,weatherlink.com 1.10,2013-09-25 10:32:00,
2013-09-25 06:47:00,37.6,37.0,29.99,SW,224,0.0,0.0,97,0.00,,,0.00,weatherlink.com 1.10,2013-09-25 10:47:00,
2013-09-25 07:02:00,37.1,36.0,29.99,SW,224,0.0,0.0,97,0.00,,,0.00,weatherlink.com 1.10,2013-09-25 11:02:00,
2013-09-25 07:17:00,36.6,36.0,30.00,SW,224,0.0,0.0,97,0.00,,,0.00,weatherlink.com 1.10,2013-09-25 11:17:00,
2013-09-25 07:32:00,36.7,36.0,30.00,SW,224,0.0,0.0,98,0.00,,,0.00,weatherlink.com 1.10,2013-09-25 11:32:00,
2013-09-25 07:47:00,37.3,37.0,30.00,SW,224,0.0,0.0,98,0.00,,,0.00,weatherlink.com 1.10,2013-09-25 11:47:00,
2013-09-25 08:02:00,37.9,37.0,30.01,SW,224,0.0,0.0,98,0.00,,,0.00,weatherlink.com 1.10,2013-09-25 12:02:00,
2013-09-25 08:17:00,39.7,39.0,30.01,SW,224,0.0,0.0,98,0.00,,,0.00,weatherlink.com 1.10,2013-09-25 12:17:00,
2013-09-25 08:32:00,42.0,42.0,30.01,North,360,0.0,1.0,99,0.00,,,0.00,weatherlink.com 1.10,2013-09-25 12:32:00,
2013-09-25 08:47:00,44.1,44.0,30.01,North,1,0.0,0.0,99,0.01,,,0.01,weatherlink.com 1.10,2013-09-25 12:47:00,
2013-09-25 09:02:00,46.0,46.0,30.01,ENE,67,1.0,1.0,99,0.01,,,0.01,weatherlink.com 1.10,2013-09-25 13:02:00,
2013-09-25 09:17:00,47.7,48.0,30.00,ENE,65,0.0,0.0,99,0.01,,,0.01,weatherlink.com 1.10,2013-09-25 13:17:00,
2013-09-25 09:32:00,48.8,49.0,30.00,North,10,1.0,1.0,99,0.01,,,0.01,weatherlink.com 1.10,2013-09-25 13:32:00,
2013-09-25 09:47:00,49.8,50.0,30.00,NNE,30,0.0,1.0,99,0.00,,,0.01,weatherlink.com 1.10,2013-09-25 13:47:00,
2013-09-25 10:02:00,50.7,50.0,30.00,NE,44,0.0,1.0,98,0.00,,,0.01,weatherlink.com 1.10,2013-09-25 14:02:00,
2013-09-25 10:17:00,51.6,51.0,30.01,ESE,107,0.0,2.0,98,0.00,,,0.01,weatherlink.com 1.10,2013-09-25 14:17:00,
2013-09-25 10:32:00,52.7,52.0,30.01,ESE,108,0.0,1.0,98,0.00,,,0.01,weatherlink.com 1.10,2013-09-25 14:32:00,
2013-09-25 10:47:00,54.1,54.0,30.01,SSE,167,0.0,1.0,98,0.00,,,0.01,weatherlink.com 1.10,2013-09-25 14:47:00,
2013-09-25 11:02:00,55.5,55.0,30.00,NE,38,0.0,2.0,98,0.00,,,0.01,weatherlink.com 1.10,2013-09-25 15:02:00,
2013-09-25 11:17:00,57.4,56.0,30.00,NW,323,0.0,3.0,96,0.00,,,0.01,weatherlink.com 1.10,2013-09-25 15:17:00,
2013-09-25 11:33:00,60.2,57.0,30.00,North,1,1.0,3.0,88,0.00,,,0.01,weatherlink.com 1.10,2013-09-25 15:33:00,
2013-09-25 11:48:00,62.9,56.0,30.00,East,95,0.0,4.0,78,0.00,,,0.01,weatherlink.com 1.10,2013-09-25 15:48:00,
2013-09-25 12:03:00,64.3,55.0,30.00,ESE,117,1.0,4.0,72,0.00,,,0.01,weatherlink.com 1.10,2013-09-25 16:03:00,
2013-09-25 12:18:00,65.9,51.0,30.00,ENE,78,1.0,6.0,60,0.00,,,0.01,weatherlink.com 1.10,2013-09-25 16:18:00,
2013-09-25 12:33:00,67.4,51.0,29.99,NE,43,4.0,6.0,55,0.00,,,0.01,weatherlink.com 1.10,2013-09-25 16:33:00,
2013-09-25 12:48:00,67.6,50.0,29.99,SE,146,3.0,6.0,53,0.00,,,0.01,weatherlink.com 1.10,2013-09-25 16:48:00,
2013-09-25 13:03:00,68.3,49.0,29.99,ESE,103,2.0,7.0,51,0.00,,,0.01,weatherlink.com 1.10,2013-09-25 17:03:00,
2013-09-25 13:18:00,69.6,51.0,29.98,ESE,120,2.0,6.0,51,0.00,,,0.01,weatherlink.com 1.10,2013-09-25 17:18:00,
2013-09-25 13:33:00,70.4,47.0,29.98,SE,129,2.0,5.0,43,0.00,,,0.01,weatherlink.com 1.10,2013-09-25 17:33:00,
2013-09-25 13:48:00,70.6,48.0,29.98,ESE,103,3.0,6.0,44,0.00,,,0.01,weatherlink.com 1.10,2013-09-25 17:48:00,
2013-09-25 14:03:00,70.9,48.0,29.97,ENE,70,6.0,6.0,44,0.00,,,0.01,weatherlink.com 1.10,2013-09-25 18:03:00,
2013-09-25 14:18:00,71.9,47.0,29.96,ESE,115,1.0,6.0,42,0.00,,,0.01,weatherlink.com 1.10,2013-09-25 18:18:00,
2013-09-25 14:33:00,72.5,47.0,29.96,ESE,121,3.0,5.0,41,0.00,,,0.01,weatherlink.com 1.10,2013-09-25 18:33:00,
2013-09-25 14:48:00,72.7,48.0,29.95,NNE,26,2.0,5.0,42,0.00,,,0.01,weatherlink.com 1.10,2013-09-25 18:48:00,
2013-09-25 15:03:00,72.3,48.0,29.95,East,79,4.0,5.0,42,0.00,,,0.01,weatherlink.com 1.10,2013-09-25 19:03:00,
2013-09-25 15:18:00,72.0,48.0,29.95,East,89,3.0,4.0,43,0.00,,,0.01,weatherlink.com 1.10,2013-09-25 19:18:00,
2013-09-25 15:33:00,72.8,49.0,29.94,East,85,2.0,6.0,43,0.00,,,0.01,weatherlink.com 1.10,2013-09-25 19:33:00,
2013-09-25 15:48:00,74.6,48.0,29.94,SSE,156,2.0,5.0,39,0.00,,,0.01,weatherlink.com 1.10,2013-09-25 19:48:00,
2013-09-25 16:03:00,74.7,50.0,29.94,NNW,338,2.0,3.0,42,0.00,,,0.01,weatherlink.com 1.10,2013-09-25 20:03:00,
2013-09-25 16:18:00,74.1,51.0,29.94,NNE,15,2.0,5.0,44,0.00,,,0.01,weatherlink.com 1.10,2013-09-25 20:18:00,
2013-09-25 16:33:00,73.5,50.0,29.94,ENE,63,0.0,4.0,43,0.00,,,0.01,weatherlink.com 1.10,2013-09-25 20:33:00,
2013-09-25 16:49:00,74.2,50.0,29.94,NNW,343,1.0,4.0,42,0.00,,,0.01,weatherlink.com 1.10,2013-09-25 20:49:00,
2013-09-25 17:03:00,73.9,49.0,29.94,NNW,340,0.0,5.0,41,0.00,,,0.01,weatherlink.com 1.10,2013-09-25 21:03:00,
2013-09-25 17:18:00,72.8,49.0,29.94,NNE,17,1.0,5.0,43,0.00,,,0.01,weatherlink.com 1.10,2013-09-25 21:18:00,
2013-09-25 17:33:00,71.8,50.0,29.95,NE,47,0.0,2.0,46,0.00,,,0.01,weatherlink.com 1.10,2013-09-25 21:33:00,
2013-09-25 17:48:00,70.5,50.0,29.95,ENE,72,0.0,3.0,48,0.00,,,0.01,weatherlink.com 1.10,2013-09-25 21:48:00,
2013-09-25 18:03:00,68.2,54.0,29.96,NE,41,0.0,12.0,60,0.00,,,0.01,weatherlink.com 1.10,2013-09-25 22:03:00,
2013-09-25 18:18:00,66.9,54.0,29.96,NNW,333,1.0,6.0,64,0.00,,,0.01,weatherlink.com 1.10,2013-09-25 22:18:00,
2013-09-25 18:33:00,65.8,54.0,29.96,NNE,19,4.0,9.0,65,0.00,,,0.01,weatherlink.com 1.10,2013-09-25 22:33:00,
2013-09-25 18:48:00,64.9,53.0,29.96,NNE,23,0.0,8.0,66,0.00,,,0.01,weatherlink.com 1.10,2013-09-25 22:48:00,
2013-09-25 19:03:00,63.9,53.0,29.96,NNE,27,3.0,9.0,67,0.00,,,0.01,weatherlink.com 1.10,2013-09-25 23:03:00,
2013-09-25 19:18:00,62.9,52.0,29.96,North,8,0.0,6.0,68,0.00,,,0.01,weatherlink.com 1.10,2013-09-25 23:18:00,
2013-09-25 19:34:00,61.6,51.0,29.96,West,281,0.0,4.0,69,0.00,,,0.01,weatherlink.com 1.10,2013-09-25 23:34:00,
2013-09-25 19:49:00,60.2,51.0,29.96,NNW,343,0.0,1.0,72,0.00,,,0.01,weatherlink.com 1.10,2013-09-25 23:49:00,
2013-09-25 20:04:00,58.8,51.0,29.96,NNW,347,0.0,0.0,75,0.00,,,0.01,weatherlink.com 1.10,2013-09-26 00:04:00,
2013-09-25 20:19:00,57.3,51.0,29.96,NNW,347,0.0,0.0,78,0.00,,,0.01,weatherlink.com 1.10,2013-09-26 00:19:00,
2013-09-25 20:34:00,56.1,50.0,29.96,NNW,347,0.0,0.0,81,0.00,,,0.01,weatherlink.com 1.10,2013-09-26 00:34:00,
2013-09-25 20:49:00,55.0,50.0,29.97,NNW,347,0.0,0.0,83,0.00,,,0.01,weatherlink.com 1.10,2013-09-26 00:49:00,
2013-09-25 21:19:00,52.6,49.0,29.97,NNW,347,0.0,0.0,88,0.00,,,0.01,weatherlink.com 1.10,2013-09-26 01:19:00,
2013-09-25 21:34:00,52.3,50.0,29.97,NNW,347,0.0,0.0,90,0.00,,,0.01,weatherlink.com 1.10,2013-09-26 01:34:00,
2013-09-25 21:49:00,51.4,49.0,29.97,NNW,347,0.0,0.0,91,0.00,,,0.01,weatherlink.com 1.10,2013-09-26 01:49:00,
2013-09-25 22:34:00,49.8,48.0,29.98,NNW,347,0.0,1.0,94,0.00,,,0.01,weatherlink.com 1.10,2013-09-26 02:34:00,
2013-09-25 23:04:00,48.4,47.0,29.99,NNW,347,0.0,0.0,95,0.00,,,0.01,weatherlink.com 1.10,2013-09-26 03:04:00,
2013-09-25 23:19:00,48.6,47.0,29.99,NNW,347,0.0,0.0,95,0.00,,,0.01,weatherlink.com 1.10,2013-09-26 03:19:00,
2013-09-25 23:34:00,47.8,47.0,30.00,NNW,347,0.0,0.0,95,0.00,,,0.01,weatherlink.com 1.10,2013-09-26 03:34:00,
2013-09-25 23:49:00,47.0,46.0,30.00,NNW,347,0.0,0.0,95,0.00,,,0.01,weatherlink.com 1.10,2013-09-26 03:49:00,